Terminal Aerodrome Forecast
Issued by NWS

Current Version | Previous Version | Text Only | Print | Product List | Glossary On
Versions: 1 2 3 4 5 6 7 8 9 10 11 12 13 14 15 16 17 18 19 20 21 22 23 24 25 26 27 28 29 30 31 32 33
000
FTAK31 PANC 301739
TAFADQ
TAF
PADQ 301739Z 3018/0118 04006KT P6SM VCSH SCT020 BKN050
      TEMPO 3018/3021 BKN020
     FM302100 09006KT P6SM SCT050 BKN100
     FM011000 VRB03KT P6SM VCSH BKN025=

USA.gov is the U.S. government's official web portal to all federal, state and local government web resources and services.